createdAt,value
2022-07-26T00:02:56.602Z,28.36
2022-07-26T00:08:11.134Z,28.39
2022-07-26T00:13:13.629Z,28.18
2022-07-26T00:18:17.367Z,28.25
2022-07-26T00:23:22.468Z,27.92
2022-07-26T00:28:25.363Z,28.04
2022-07-26T00:33:28.051Z,28.04
2022-07-26T00:38:30.702Z,27.90
2022-07-26T00:43:33.342Z,27.53
2022-07-26T00:48:37.438Z,27.85
2022-07-26T00:53:39.849Z,27.61
2022-07-26T00:58:45.905Z,27.65
2022-07-26T01:03:53.628Z,27.68
2022-07-26T01:08:56.291Z,27.46
2022-07-26T01:13:58.753Z,27.40
2022-07-26T01:19:01.517Z,27.22
2022-07-26T01:24:04.221Z,27.28
2022-07-26T01:29:06.939Z,27.33
2022-07-26T01:34:09.718Z,27.16
2022-07-26T01:39:12.706Z,27.18
2022-07-26T01:44:15.116Z,27.14
2022-07-26T01:49:17.866Z,27.14
2022-07-26T01:54:22.591Z,27.17
2022-07-26T01:59:27.021Z,27.08
2022-07-26T02:04:47.678Z,26.91
2022-07-26T02:09:50.290Z,26.92
2022-07-26T02:14:53.123Z,26.89
2022-07-26T02:19:55.602Z,26.93
2022-07-26T02:25:02.973Z,26.92
2022-07-26T02:30:07.817Z,26.72
2022-07-26T02:35:10.768Z,26.77
2022-07-26T02:40:29.210Z,26.44
2022-07-26T02:45:31.862Z,26.62
2022-07-26T02:50:34.439Z,26.49
2022-07-26T02:55:36.829Z,26.49
2022-07-26T03:00:39.181Z,26.33
2022-07-26T03:05:41.670Z,26.38
2022-07-26T03:10:44.016Z,26.36
2022-07-26T03:15:46.543Z,26.39
2022-07-26T03:20:48.944Z,26.31
2022-07-26T03:25:51.313Z,26.52
2022-07-26T03:30:53.816Z,26.39
2022-07-26T03:35:56.316Z,26.48
2022-07-26T03:40:58.794Z,26.35
2022-07-26T03:46:01.199Z,26.16
2022-07-26T03:51:03.568Z,26.35
2022-07-26T03:56:24.833Z,26.24
2022-07-26T04:01:35.578Z,26.35
2022-07-26T04:06:38.224Z,26.17
2022-07-26T04:11:40.852Z,25.99
2022-07-26T04:16:43.953Z,25.95
2022-07-26T04:21:49.545Z,25.58
2022-07-26T04:26:52.196Z,26.09
2022-07-26T04:31:54.570Z,26.19
2022-07-26T04:36:56.967Z,26.07
2022-07-26T04:41:59.324Z,26.31
2022-07-26T04:47:01.735Z,26.09
2022-07-26T04:52:04.849Z,26.23
2022-07-26T04:57:10.367Z,26.29
2022-07-26T05:02:15.726Z,26.75
2022-07-26T05:07:20.794Z,27.00
2022-07-26T05:12:23.147Z,26.77
2022-07-26T05:17:26.080Z,26.91
2022-07-26T05:22:29.061Z,27.14
2022-07-26T05:27:31.532Z,27.18
2022-07-26T05:32:34.598Z,27.42
2022-07-26T05:37:37.476Z,27.16
2022-07-26T05:42:40.146Z,27.25
2022-07-26T05:47:42.757Z,27.31
2022-07-26T05:52:45.234Z,26.88
2022-07-26T05:57:50.546Z,27.45
2022-07-26T06:02:53.045Z,28.02
2022-07-26T06:07:55.581Z,28.03
2022-07-26T06:13:01.479Z,27.79
2022-07-26T06:18:04.119Z,28.37
2022-07-26T06:23:07.210Z,27.62
2022-07-26T06:28:11.382Z,28.48
2022-07-26T06:33:14.071Z,27.83
2022-07-26T06:38:16.604Z,28.58
2022-07-26T06:43:19.197Z,28.62
2022-07-26T06:48:21.773Z,28.83
2022-07-26T06:53:24.221Z,28.92
2022-07-26T06:58:27.078Z,29.46
2022-07-26T07:03:32.335Z,29.21
2022-07-26T07:08:34.969Z,29.29
2022-07-26T07:13:37.591Z,29.83
2022-07-26T07:18:40.062Z,29.38
2022-07-26T07:23:42.476Z,29.58
2022-07-26T07:28:45.012Z,30.14
2022-07-26T07:33:53.575Z,29.90
2022-07-26T07:38:56.410Z,29.68
2022-07-26T07:43:59.219Z,30.47
2022-07-26T07:49:01.879Z,29.88
2022-07-26T07:54:05.932Z,29.88
2022-07-26T07:59:09.171Z,29.92
2022-07-26T08:04:12.346Z,30.15
2022-07-26T08:09:22.664Z,30.50
2022-07-26T08:14:25.413Z,30.48
2022-07-26T08:19:31.051Z,31.49
2022-07-26T08:24:47.612Z,31.84
2022-07-26T08:29:50.282Z,31.22
2022-07-26T08:34:52.853Z,31.32
2022-07-26T08:39:55.422Z,31.33
2022-07-26T08:44:58.373Z,31.16
2022-07-26T08:50:00.842Z,31.12
2022-07-26T08:55:03.389Z,31.83
2022-07-26T09:00:38.128Z,31.91
2022-07-26T09:05:41.278Z,32.63
2022-07-26T09:10:43.692Z,32.63
2022-07-26T09:15:46.356Z,32.70
2022-07-26T09:20:48.994Z,32.58
2022-07-26T09:25:51.525Z,32.79
2022-07-26T09:31:00.601Z,32.57
2022-07-26T09:36:06.826Z,32.62
2022-07-26T09:41:37.541Z,32.67
2022-07-26T09:46:53.461Z,32.50
2022-07-26T09:51:56.109Z,33.51
2022-07-26T09:56:59.051Z,32.54
2022-07-26T10:02:02.247Z,32.32
2022-07-26T10:07:05.243Z,32.33
2022-07-26T10:12:09.954Z,32.76
2022-07-26T10:17:38.198Z,33.89
2022-07-26T10:22:47.401Z,33.66
2022-07-26T10:27:54.999Z,33.53
2022-07-26T10:33:06.920Z,34.09
2022-07-26T10:38:26.649Z,33.58
2022-07-26T10:43:40.656Z,33.25
2022-07-26T10:48:56.991Z,34.47
2022-07-26T10:54:10.596Z,34.67
2022-07-26T10:59:13.346Z,34.77
2022-07-26T11:04:20.340Z,34.78
2022-07-26T11:09:24.137Z,34.96
2022-07-26T11:14:26.933Z,34.76
2022-07-26T11:19:29.871Z,35.10
2022-07-26T11:24:32.447Z,34.69
2022-07-26T11:29:38.701Z,35.01
2022-07-26T11:34:45.598Z,35.60
2022-07-26T11:39:48.028Z,35.35
2022-07-26T11:44:51.346Z,35.44
2022-07-26T11:50:18.400Z,35.85
2022-07-26T11:55:29.679Z,35.99
2022-07-26T12:00:32.227Z,36.00
2022-07-26T12:05:34.719Z,36.15
2022-07-26T12:10:37.392Z,36.45
2022-07-26T12:15:50.841Z,36.46
2022-07-26T12:21:07.819Z,36.37
2022-07-26T12:26:31.414Z,36.27
2022-07-26T12:31:34.667Z,36.28
2022-07-26T12:36:37.237Z,36.55
2022-07-26T12:41:40.787Z,36.74
2022-07-26T12:46:47.030Z,36.62
2022-07-26T12:51:49.724Z,36.96
2022-07-26T12:56:54.730Z,36.89
2022-07-26T13:01:57.314Z,37.11
2022-07-26T13:06:59.901Z,37.32
2022-07-26T13:12:04.156Z,37.33
2022-07-26T13:17:07.537Z,37.35
2022-07-26T13:22:10.948Z,37.38
2022-07-26T13:27:13.592Z,37.35
2022-07-26T13:32:17.821Z,37.62
2022-07-26T13:37:20.260Z,37.79
2022-07-26T13:42:22.853Z,37.47
2022-07-26T13:47:25.358Z,37.46
2022-07-26T13:52:27.925Z,37.58
2022-07-26T13:57:49.098Z,37.65
2022-07-26T14:02:52.995Z,38.00
2022-07-26T14:07:56.865Z,38.04
2022-07-26T14:13:06.089Z,38.19
2022-07-26T14:18:08.648Z,38.00
2022-07-26T14:23:11.140Z,38.72
2022-07-26T14:28:16.299Z,37.88
2022-07-26T14:33:21.948Z,38.23
2022-07-26T14:38:29.610Z,38.37
2022-07-26T14:43:32.661Z,39.00
2022-07-26T14:48:53.460Z,39.11
2022-07-26T14:53:56.807Z,39.29
2022-07-26T14:58:59.171Z,39.47
2022-07-26T15:04:01.651Z,39.68
2022-07-26T15:09:05.036Z,39.93
2022-07-26T15:14:07.780Z,40.07
2022-07-26T15:19:11.605Z,40.25
2022-07-26T15:24:14.860Z,40.47
2022-07-26T15:29:17.377Z,40.53
2022-07-26T15:34:19.873Z,40.93
2022-07-26T15:39:22.346Z,41.20
2022-07-26T15:44:25.734Z,41.48
2022-07-26T15:49:29.028Z,41.48
2022-07-26T15:54:31.542Z,41.23
2022-07-26T15:59:36.590Z,41.18
2022-07-26T16:04:39.042Z,40.88
2022-07-26T16:09:41.598Z,40.74
2022-07-26T16:14:44.080Z,40.30
2022-07-26T16:19:46.450Z,40.05
2022-07-26T16:24:49.175Z,39.79
2022-07-26T16:29:53.909Z,39.19
2022-07-26T16:34:56.370Z,38.79
2022-07-26T16:39:58.908Z,38.18
2022-07-26T16:45:01.336Z,37.50
2022-07-26T16:50:04.605Z,37.04
2022-07-26T16:55:11.372Z,35.58
2022-07-26T17:00:16.499Z,35.05
2022-07-26T17:05:19.075Z,34.40
2022-07-26T17:10:21.864Z,34.88
2022-07-26T17:15:27.649Z,33.87
2022-07-26T17:20:30.557Z,33.64
2022-07-26T17:25:33.319Z,33.72
2022-07-26T17:30:35.948Z,33.08
2022-07-26T17:35:38.563Z,33.34
2022-07-26T17:40:41.189Z,33.24
2022-07-26T17:45:45.347Z,33.33
2022-07-26T17:50:47.933Z,33.22
2022-07-26T17:55:50.301Z,32.99
2022-07-26T18:00:55.673Z,32.93
2022-07-26T18:05:58.184Z,32.69
2022-07-26T18:11:03.309Z,32.73
2022-07-26T18:16:06.536Z,32.38
2022-07-26T18:21:08.968Z,32.50
2022-07-26T18:26:11.413Z,32.28
2022-07-26T18:31:14.013Z,32.27
2022-07-26T18:36:16.765Z,32.00
2022-07-26T18:41:19.421Z,32.04
2022-07-26T18:46:21.869Z,31.90
2022-07-26T18:51:26.597Z,31.81
2022-07-26T18:56:29.607Z,31.77
2022-07-26T19:01:32.058Z,31.44
2022-07-26T19:06:35.342Z,31.63
2022-07-26T19:11:37.968Z,31.45
2022-07-26T19:16:40.489Z,31.61
2022-07-26T19:21:47.248Z,31.64
2022-07-26T19:26:52.107Z,31.55
2022-07-26T19:31:54.648Z,31.30
2022-07-26T19:36:57.149Z,31.24
2022-07-26T19:41:59.812Z,31.22
2022-07-26T19:47:02.196Z,30.96
2022-07-26T19:52:11.728Z,31.08
2022-07-26T19:57:14.461Z,30.90
2022-07-26T20:02:17.934Z,31.14
2022-07-26T20:07:20.689Z,31.01
2022-07-26T20:12:23.155Z,31.12
2022-07-26T20:17:26.541Z,30.42
2022-07-26T20:22:34.929Z,30.85
2022-07-26T20:27:37.502Z,30.81
2022-07-26T20:32:40.646Z,30.80
2022-07-26T20:37:44.057Z,30.53
2022-07-26T20:42:50.056Z,30.69
2022-07-26T20:47:53.929Z,30.65
2022-07-26T20:52:56.488Z,30.42
2022-07-26T20:57:58.899Z,30.45
2022-07-26T21:03:01.669Z,30.50
2022-07-26T21:08:04.734Z,30.34
2022-07-26T21:13:07.298Z,30.52
2022-07-26T21:18:10.120Z,30.42
2022-07-26T21:23:17.792Z,30.33
2022-07-26T21:28:21.519Z,30.42
2022-07-26T21:33:26.932Z,30.25
2022-07-26T21:38:32.469Z,30.26
2022-07-26T21:43:35.163Z,30.14
2022-07-26T21:48:38.594Z,30.12
2022-07-26T21:53:41.239Z,29.88
2022-07-26T21:58:43.648Z,30.11
2022-07-26T22:03:46.132Z,30.01
2022-07-26T22:08:48.605Z,30.02
2022-07-26T22:13:51.280Z,30.16
2022-07-26T22:18:53.776Z,29.83
2022-07-26T22:23:56.277Z,29.76
2022-07-26T22:28:59.782Z,29.79
2022-07-26T22:34:02.748Z,29.68
2022-07-26T22:39:05.221Z,29.71
2022-07-26T22:44:11.572Z,29.74
2022-07-26T22:49:15.023Z,29.60
2022-07-26T22:54:17.670Z,29.32
2022-07-26T22:59:22.057Z,29.25
2022-07-26T23:04:24.445Z,28.86
2022-07-26T23:09:27.208Z,28.97
2022-07-26T23:14:29.630Z,28.72
2022-07-26T23:19:31.984Z,28.48
2022-07-26T23:24:35.336Z,28.44
2022-07-26T23:29:37.872Z,28.36
2022-07-26T23:34:40.264Z,28.50
2022-07-26T23:39:42.801Z,28.39
2022-07-26T23:44:45.257Z,28.22
2022-07-26T23:49:47.672Z,28.36
2022-07-26T23:54:50.148Z,28.40
2022-07-26T23:59:52.501Z,28.33
